Airfield :
LOGIN :

Register | Disclaimer

   EN    FR    IT 

 










Legend :    VFR   Marginal VFR   IFR   Intensive IFR   Very Intensive IFR
Visi :
Ceiling :
>= 8 km
>= 3000ft
5 to 8 km
1000 to 3000 ft
1500m to 5 km
500 to 1000 ft
800 to 1500m
200 to 500 ft
< 800m
< 200 ft
Symbols :   Thunderstorms  Fog  Heavy snow  Heavy precipitations  Wind > 20 kt
SIGMETs :     Misc.  Thunderstorms  Icing  Turbulence  Mountain Waves  Volcanic Ashes







- Airport Elevation : 219 ft
- IATA code : DNR
- Download approach charts


LFRD - Dinard

CURRENT METAR :
  • 260200Z AUTO 17008KT 9999 FEW024 SCT032 BKN041 08/07 Q1007 TEMPO 3000 BR BKN020CB

EXPIRED METARs :
  • 260130Z AUTO 17011KT 9999 FEW030/// BKN042/// BKN058/// ///TCU 08/07 Q1007 TEMPO SHRA BKN020CB
  • 260100Z AUTO 17011KT 9999 FEW038/// BKN056/// BKN084/// ///TCU 08/06 Q1007 TEMPO SHRA BKN020CB
  • 260030Z AUTO 16006KT 9999 FEW033/// SCT056/// BKN088/// ///TCU 08/06 Q1007 TEMPO SHRA BKN020CB
  • 260000Z AUTO 16007KT CAVOK 08/07 Q1007 TEMPO SHRA BKN020CB
  • 252330Z AUTO 13005KT 100V160 CAVOK 08/07 Q1007 TEMPO SHRA BKN020CB

TAF TAF LFRD
Valid from the 26 at 00:00 until the 27 at 00:00 UTC


252300Z 2600/2624 16008KT 9999 BKN030
TEMPO 2600/2604 5000 SHRA BKN020CB
TEMPO 2604/2608 3000 BR BKN005
BECMG 2606/2608 27010KT
TEMPO 2611/2616 27015G25KT 4000 SHRA BKN020TCU
BECMG 2618/2620 20010KT
TEMPO 2619/2624 3000 RA BKN008
BECMG 2622/2624 26015G30KT
ATIS : +33 2 99 16 81 50
No reported NOTAMs for that airfield.
2 SIGMETs reported for the Brest FIR (LFRR) :
 
Embedded thunderstorms
LFRR SIGMET 4 VALID 260100/260230 LFPW
LFRR BREST FIR/UIR EMBD TS FCST WI N4545 W00145 - N4330 W00145 - N4345 W00300 - N4545 W00230 - N4545 W00145 TOP FL270 STNR NC=
Embedded thunderstorms
LFRR SIGMET 1 VALID 260045/260230 LFPW
LFRR BREST FIR/UIR EMBD TS FCST WI N4630 W00030 - N4630 W00130 - N4615 W00130 - N4615 W00200 - N4645 W00100 - N4630 W00030 TOP FL270 MOV NE 30KT NC=



MET'MAP, your aeronautical weather chart ! - Copyright ORBIFLY December 2007 - Disclaimer

ORBIFLY MET'MAP TEAM :

Programming & Development : Alexandra Zaïnal
Concept & Development : Baudouin d'Aumeries
Co-Development & Prog : Marc-Olivier Méhu
Technical & hardware support : Manuel Goepfert

Contact : metmap@orbifly.com




SOURCES & CREDITS :

   NOAA